createdAt,value
2018-07-08T00:00:28.651Z,2.10
2018-07-08T00:03:05.830Z,1.90
2018-07-08T00:05:41.892Z,2.20
2018-07-08T00:08:18.053Z,1.80
2018-07-08T00:10:56.058Z,2.27
2018-07-08T00:13:29.532Z,2.10
2018-07-08T00:16:04.233Z,2.63
2018-07-08T00:18:39.219Z,1.90
2018-07-08T00:21:14.897Z,2.10
2018-07-08T00:23:51.277Z,2.30
2018-07-08T00:26:24.744Z,2.00
2018-07-08T00:29:01.298Z,1.90
2018-07-08T00:31:33.863Z,2.45
2018-07-08T00:34:08.112Z,2.33
2018-07-08T00:36:41.865Z,2.53
2018-07-08T00:39:15.322Z,2.40
2018-07-08T00:41:48.109Z,2.30
2018-07-08T00:44:21.792Z,2.97
2018-07-08T00:46:54.288Z,2.15
2018-07-08T00:49:27.911Z,2.40
2018-07-08T00:52:00.613Z,2.70
2018-07-08T00:54:33.085Z,2.50
2018-07-08T00:57:06.513Z,2.60
2018-07-08T00:59:44.794Z,2.20
2018-07-08T01:02:18.661Z,2.67
2018-07-08T01:04:51.131Z,2.50
2018-07-08T01:07:25.229Z,2.30
2018-07-08T01:09:57.722Z,2.40
2018-07-08T01:12:32.357Z,2.43
2018-07-08T01:15:09.085Z,2.60
2018-07-08T01:17:43.805Z,2.90
2018-07-08T01:20:16.265Z,2.53
2018-07-08T01:22:51.977Z,2.60
2018-07-08T01:25:46.657Z,3.20
2018-07-08T01:28:19.430Z,2.80
2018-07-08T01:30:52.357Z,3.40
2018-07-08T01:33:26.170Z,2.97
2018-07-08T01:35:59.849Z,3.33
2018-07-08T01:38:32.898Z,2.80
2018-07-08T01:41:06.496Z,3.00
2018-07-08T01:43:40.263Z,2.80
2018-07-08T01:46:13.371Z,2.80
2018-07-08T01:48:45.963Z,2.73
2018-07-08T01:51:18.494Z,3.23
2018-07-08T01:53:53.086Z,2.87
2018-07-08T01:56:26.185Z,3.10
2018-07-08T01:58:59.230Z,3.13
2018-07-08T02:01:32.146Z,3.67
2018-07-08T02:04:06.921Z,3.00
2018-07-08T02:06:43.080Z,3.05
2018-07-08T02:09:17.297Z,3.30
2018-07-08T02:11:53.822Z,3.30
2018-07-08T02:14:27.953Z,3.23
2018-07-08T02:17:01.672Z,3.03
2018-07-08T02:19:38.223Z,2.80
2018-07-08T02:22:12.136Z,3.03
2018-07-08T02:24:44.969Z,3.43
2018-07-08T02:27:18.938Z,2.83
2018-07-08T02:29:52.575Z,3.43
2018-07-08T02:32:28.672Z,3.27
2018-07-08T02:35:02.081Z,3.57
2018-07-08T02:37:35.013Z,3.00
2018-07-08T02:40:08.204Z,3.67
2018-07-08T02:42:41.843Z,3.37
2018-07-08T02:45:16.521Z,3.65
2018-07-08T02:47:51.174Z,3.43
2018-07-08T02:50:24.355Z,3.50
2018-07-08T02:52:56.973Z,3.45
2018-07-08T02:55:29.770Z,3.40
2018-07-08T02:58:03.045Z,3.53
2018-07-08T03:00:35.527Z,3.70
2018-07-08T03:03:08.503Z,4.63
2018-07-08T03:05:41.083Z,3.50
2018-07-08T03:08:13.659Z,3.63
2018-07-08T03:10:46.675Z,3.40
2018-07-08T03:13:19.415Z,4.10
2018-07-08T03:15:52.955Z,4.18
2018-07-08T03:18:26.639Z,4.20
2018-07-08T03:20:59.098Z,4.87
2018-07-08T03:23:31.783Z,3.90
2018-07-08T03:26:04.666Z,4.63
2018-07-08T03:28:37.306Z,4.57
2018-07-08T03:31:10.365Z,4.63
2018-07-08T03:33:43.398Z,4.30
2018-07-08T03:36:15.838Z,4.13
2018-07-08T03:38:48.466Z,4.37
2018-07-08T03:41:21.228Z,4.83
2018-07-08T03:43:53.865Z,5.00
2018-07-08T03:46:26.634Z,4.23
2018-07-08T03:49:00.684Z,4.63
2018-07-08T03:51:33.198Z,4.78
2018-07-08T03:54:22.765Z,4.40
2018-07-08T03:56:55.345Z,4.70
2018-07-08T03:59:27.927Z,4.17
2018-07-08T04:02:00.394Z,4.77
2018-07-08T04:04:36.132Z,4.97
2018-07-08T04:07:12.397Z,4.60
2018-07-08T04:09:45.385Z,4.50
2018-07-08T04:12:17.886Z,4.50
2018-07-08T04:14:50.519Z,4.90
2018-07-08T04:17:23.362Z,5.33
2018-07-08T04:19:55.785Z,5.10
2018-07-08T04:22:29.149Z,4.60
2018-07-08T04:25:02.230Z,5.50
2018-07-08T04:27:34.740Z,5.53
2018-07-08T04:30:07.505Z,5.17
2018-07-08T04:32:41.464Z,4.93
2018-07-08T04:35:13.916Z,5.90
2018-07-08T04:37:46.481Z,5.13
2018-07-08T04:40:19.511Z,4.90
2018-07-08T04:42:52.045Z,5.70
2018-07-08T04:45:24.643Z,4.90
2018-07-08T04:47:58.456Z,4.80
2018-07-08T04:50:30.969Z,5.10
2018-07-08T04:53:03.490Z,5.20
2018-07-08T04:55:36.334Z,6.30
2018-07-08T04:58:08.754Z,4.80
2018-07-08T05:00:41.388Z,6.15
2018-07-08T05:03:14.208Z,5.05
2018-07-08T05:05:46.687Z,5.37
2018-07-08T05:08:19.266Z,4.10
2018-07-08T05:10:52.068Z,4.60
2018-07-08T05:13:24.713Z,4.70
2018-07-08T05:15:57.299Z,4.33
2018-07-08T05:18:31.767Z,4.47
2018-07-08T05:21:05.514Z,4.60
2018-07-08T05:23:38.045Z,4.47
2018-07-08T05:26:11.581Z,4.50
2018-07-08T05:28:43.993Z,4.90
2018-07-08T05:31:18.833Z,4.70
2018-07-08T05:33:51.628Z,4.70
2018-07-08T05:36:24.168Z,4.27
2018-07-08T05:38:57.768Z,4.97
2018-07-08T05:41:33.317Z,5.20
2018-07-08T05:44:06.544Z,4.60
2018-07-08T05:46:39.240Z,4.07
2018-07-08T05:49:12.201Z,4.10
2018-07-08T05:51:45.025Z,3.50
2018-07-08T05:54:17.571Z,3.40
2018-07-08T05:56:50.351Z,3.73
2018-07-08T05:59:23.429Z,4.57
2018-07-08T06:01:58.450Z,3.80
2018-07-08T06:04:32.250Z,4.10
2018-07-08T06:07:05.306Z,3.97
2018-07-08T06:09:38.041Z,4.00
2018-07-08T06:12:12.469Z,4.00
2018-07-08T06:14:44.876Z,3.47
2018-07-08T06:17:17.478Z,3.90
2018-07-08T06:19:51.097Z,3.93
2018-07-08T06:22:28.653Z,3.47
2018-07-08T06:25:01.339Z,3.40
2018-07-08T06:27:35.268Z,2.77
2018-07-08T06:30:07.984Z,3.40
2018-07-08T06:32:40.607Z,2.90
2018-07-08T06:35:13.531Z,3.20
2018-07-08T06:37:46.716Z,3.20
2018-07-08T06:40:20.390Z,2.70
2018-07-08T06:42:53.474Z,2.90
2018-07-08T06:45:25.950Z,2.40
2018-07-08T06:47:59.436Z,2.60
2018-07-08T06:50:33.149Z,2.20
2018-07-08T06:53:07.566Z,2.40
2018-07-08T06:55:40.685Z,2.77
2018-07-08T06:58:15.433Z,2.60
2018-07-08T07:00:48.022Z,2.17
2018-07-08T07:03:20.758Z,2.20
2018-07-08T07:05:56.238Z,2.40
2018-07-08T07:08:39.693Z,2.00
2018-07-08T07:11:14.488Z,2.20
2018-07-08T07:13:51.556Z,1.77
2018-07-08T07:16:25.530Z,1.93
2018-07-08T07:18:59.171Z,2.00
2018-07-08T07:21:38.851Z,2.30
2018-07-08T07:24:18.177Z,2.27
2018-07-08T07:26:53.371Z,1.90
2018-07-08T07:29:26.244Z,1.93
2018-07-08T07:32:03.473Z,1.77
2018-07-08T07:34:37.939Z,2.03
2018-07-08T07:37:21.660Z,1.90
2018-07-08T07:40:26.677Z,1.60
2018-07-08T07:43:01.468Z,1.83
2018-07-08T07:45:37.881Z,1.60
2018-07-08T07:48:22.181Z,1.80
2018-07-08T07:50:55.419Z,1.87
2018-07-08T07:53:33.212Z,1.97
2018-07-08T07:56:08.592Z,1.97
2018-07-08T07:58:42.884Z,1.57
2018-07-08T08:01:17.973Z,1.60
2018-07-08T08:03:50.646Z,1.60
2018-07-08T08:06:23.795Z,1.40
2018-07-08T08:08:57.595Z,1.70
2018-07-08T08:11:32.657Z,2.00
2018-07-08T08:14:08.302Z,2.00
2018-07-08T08:16:42.644Z,1.37
2018-07-08T08:19:21.361Z,1.20
2018-07-08T08:21:55.669Z,1.70
2018-07-08T08:24:33.470Z,1.50
2018-07-08T08:27:13.533Z,1.87
2018-07-08T08:29:58.799Z,2.05
2018-07-08T08:32:40.649Z,1.67
2018-07-08T08:35:22.095Z,1.90
2018-07-08T08:37:57.357Z,1.80
2018-07-08T08:40:32.929Z,1.57
2018-07-08T08:43:16.248Z,1.57
2018-07-08T08:45:49.572Z,1.20
2018-07-08T08:48:25.196Z,1.40
2018-07-08T08:51:02.593Z,1.03
2018-07-08T08:53:39.745Z,1.90
2018-07-08T08:56:14.162Z,1.50
2018-07-08T08:58:54.802Z,1.20
2018-07-08T09:01:40.895Z,1.30
2018-07-08T09:04:17.694Z,1.43
2018-07-08T09:06:52.789Z,1.20
2018-07-08T09:09:26.665Z,1.20
2018-07-08T09:12:02.429Z,1.23
2018-07-08T09:14:43.941Z,1.57
2018-07-08T09:17:18.369Z,1.30
2018-07-08T09:19:52.760Z,1.20
2018-07-08T09:22:31.625Z,1.40
2018-07-08T09:25:09.750Z,1.50
2018-07-08T09:27:44.990Z,1.23
2018-07-08T09:30:19.966Z,1.40
2018-07-08T09:32:53.035Z,1.20
2018-07-08T09:35:27.722Z,1.20
2018-07-08T09:38:05.570Z,1.00
2018-07-08T09:40:43.646Z,1.20
2018-07-08T09:43:19.663Z,1.20
2018-07-08T09:45:56.495Z,1.20
2018-07-08T09:48:34.410Z,1.27
2018-07-08T09:51:07.884Z,1.33
2018-07-08T09:53:44.138Z,1.10
2018-07-08T09:56:23.365Z,1.17
2018-07-08T09:58:59.234Z,1.00
2018-07-08T10:01:40.111Z,1.20
2018-07-08T10:04:16.092Z,1.30
2018-07-08T10:06:55.596Z,1.20
2018-07-08T10:09:39.479Z,1.30
2018-07-08T10:12:23.792Z,1.10
2018-07-08T10:15:00.598Z,1.60
2018-07-08T10:17:41.691Z,1.60
2018-07-08T10:20:17.674Z,1.43
2018-07-08T10:22:55.705Z,1.40
2018-07-08T10:25:40.250Z,1.50
2018-07-08T10:28:21.585Z,1.20
2018-07-08T10:31:12.854Z,1.60
2018-07-08T10:33:58.759Z,1.60
2018-07-08T10:36:43.236Z,1.60
2018-07-08T10:39:21.230Z,1.20
2018-07-08T10:42:01.491Z,1.20
2018-07-08T10:44:44.061Z,1.00
2018-07-08T10:47:28.810Z,1.40
2018-07-08T10:50:15.834Z,1.37
2018-07-08T10:52:53.174Z,1.40
2018-07-08T10:55:28.412Z,1.60
2018-07-08T10:58:06.682Z,1.30
2018-07-08T11:00:44.290Z,1.43
2018-07-08T11:03:21.473Z,1.50
2018-07-08T11:06:18.652Z,1.30
2018-07-08T11:09:09.566Z,1.37
2018-07-08T11:11:55.148Z,1.30
2018-07-08T11:14:53.210Z,1.03
2018-07-08T11:17:49.435Z,1.30
2018-07-08T11:20:30.190Z,1.23
2018-07-08T11:23:35.118Z,1.20
2018-07-08T11:26:18.510Z,1.80
2018-07-08T11:29:16.685Z,1.40
2018-07-08T11:31:54.277Z,1.30
2018-07-08T11:34:43.177Z,1.60
2018-07-08T11:37:29.343Z,1.60
2018-07-08T11:40:10.128Z,1.60
2018-07-08T11:42:46.718Z,1.40
2018-07-08T11:45:33.630Z,1.77
2018-07-08T11:48:17.599Z,1.70
2018-07-08T11:50:58.089Z,2.00
2018-07-08T11:53:33.317Z,1.90
2018-07-08T11:56:09.547Z,1.80
2018-07-08T11:58:54.963Z,1.90
2018-07-08T12:01:30.247Z,1.97
2018-07-08T12:04:11.095Z,1.80
2018-07-08T12:06:53.298Z,2.00
2018-07-08T12:09:45.690Z,2.10
2018-07-08T12:12:36.884Z,1.60
2018-07-08T12:15:20.622Z,1.90
2018-07-08T12:17:57.990Z,2.00
2018-07-08T12:20:41.349Z,1.90
2018-07-08T12:23:15.151Z,1.87
2018-07-08T12:25:50.744Z,2.03
2018-07-08T12:28:28.173Z,1.97
2018-07-08T12:31:01.400Z,2.10
2018-07-08T12:33:47.250Z,1.80
2018-07-08T12:36:21.177Z,2.07
2018-07-08T12:38:56.755Z,2.20
2018-07-08T12:41:38.336Z,2.00
2018-07-08T12:44:19.831Z,1.77
2018-07-08T12:47:01.378Z,5.30
2018-07-08T12:49:47.395Z,2.40
2018-07-08T12:52:22.513Z,2.50
2018-07-08T12:55:00.436Z,2.63
2018-07-08T12:57:37.263Z,2.90
2018-07-08T13:00:17.012Z,2.47
2018-07-08T13:03:01.563Z,2.10
2018-07-08T13:05:43.821Z,2.00
2018-07-08T13:08:22.834Z,2.43
2018-07-08T13:11:01.873Z,2.40
2018-07-08T13:13:39.538Z,2.23
2018-07-08T13:16:15.006Z,2.10
2018-07-08T13:18:50.329Z,1.90
2018-07-08T13:21:26.165Z,2.10
2018-07-08T13:24:02.452Z,2.07
2018-07-08T13:26:42.515Z,2.20
2018-07-08T13:29:20.381Z,2.27
2018-07-08T13:32:00.660Z,2.20
2018-07-08T13:34:38.485Z,2.43
2018-07-08T13:37:14.508Z,2.40
2018-07-08T13:39:48.754Z,2.17
2018-07-08T13:42:31.798Z,2.30
2018-07-08T13:45:12.519Z,1.60
2018-07-08T13:47:48.267Z,1.83
2018-07-08T13:50:21.826Z,2.20
2018-07-08T13:53:02.235Z,1.90
2018-07-08T13:55:37.360Z,2.30
2018-07-08T13:58:13.754Z,2.40
2018-07-08T14:00:53.133Z,2.50
2018-07-08T14:03:30.331Z,2.10
2018-07-08T14:06:10.802Z,1.83
2018-07-08T14:08:49.631Z,2.10
2018-07-08T14:11:25.182Z,2.20
2018-07-08T14:14:01.506Z,2.10
2018-07-08T14:16:35.865Z,1.77
2018-07-08T14:19:13.570Z,1.87
2018-07-08T14:21:50.855Z,2.37
2018-07-08T14:24:25.281Z,2.00
2018-07-08T14:26:58.925Z,1.90
2018-07-08T14:29:35.274Z,2.10
2018-07-08T14:32:10.231Z,2.10
2018-07-08T14:34:44.352Z,1.73
2018-07-08T14:37:19.468Z,1.80
2018-07-08T14:39:56.065Z,1.77
2018-07-08T14:42:33.009Z,1.70
2018-07-08T14:45:10.647Z,2.13
2018-07-08T14:47:47.636Z,1.70
2018-07-08T14:50:20.125Z,2.00
2018-07-08T14:52:54.178Z,1.83
2018-07-08T14:55:30.947Z,2.07
2018-07-08T14:58:05.802Z,1.90
2018-07-08T15:00:44.006Z,1.70
2018-07-08T15:03:19.527Z,1.40
2018-07-08T15:05:53.389Z,1.90
2018-07-08T15:08:27.612Z,1.57
2018-07-08T15:11:03.923Z,1.47
2018-07-08T15:13:39.480Z,1.83
2018-07-08T15:16:12.786Z,1.75
2018-07-08T15:18:51.730Z,1.53
2018-07-08T15:21:27.281Z,1.70
2018-07-08T15:24:01.451Z,1.67
2018-07-08T15:26:40.010Z,1.63
2018-07-08T15:29:21.790Z,1.63
2018-07-08T15:31:59.451Z,1.57
2018-07-08T15:34:36.672Z,1.70
2018-07-08T15:37:14.169Z,1.37
2018-07-08T15:39:49.077Z,1.98
2018-07-08T15:42:23.252Z,1.93
2018-07-08T15:45:00.357Z,1.80
2018-07-08T15:47:41.050Z,1.93
2018-07-08T15:50:22.508Z,2.00
2018-07-08T15:52:59.915Z,1.50
2018-07-08T15:55:42.495Z,1.40
2018-07-08T15:58:19.373Z,1.70
2018-07-08T16:00:55.867Z,1.50
2018-07-08T16:03:31.010Z,1.50
2018-07-08T16:06:11.267Z,1.30
2018-07-08T16:08:52.987Z,1.50
2018-07-08T16:11:30.554Z,1.37
2018-07-08T16:14:08.541Z,1.37
2018-07-08T16:16:45.530Z,1.70
2018-07-08T16:19:23.449Z,1.40
2018-07-08T16:22:00.972Z,1.60
2018-07-08T16:24:37.119Z,1.50
2018-07-08T16:27:14.505Z,1.57
2018-07-08T16:29:50.692Z,1.60
2018-07-08T16:32:27.630Z,1.93
2018-07-08T16:35:06.208Z,1.40
2018-07-08T16:37:56.855Z,1.37
2018-07-08T16:40:32.688Z,1.63
2018-07-08T16:43:14.118Z,1.50
2018-07-08T16:45:51.348Z,1.30
2018-07-08T16:48:30.409Z,1.57
2018-07-08T16:51:09.503Z,1.57
2018-07-08T16:53:44.838Z,1.23
2018-07-08T16:56:25.813Z,1.40
2018-07-08T16:59:06.438Z,1.53
2018-07-08T17:01:42.632Z,1.60
2018-07-08T17:04:21.585Z,1.20
2018-07-08T17:07:07.834Z,1.60
2018-07-08T17:09:52.587Z,1.50
2018-07-08T17:12:32.331Z,1.50
2018-07-08T17:15:07.070Z,1.40
2018-07-08T17:17:42.825Z,1.30
2018-07-08T17:20:21.862Z,1.80
2018-07-08T17:22:59.203Z,1.40
2018-07-08T17:25:33.999Z,1.17
2018-07-08T17:28:22.318Z,2.27
2018-07-08T17:30:57.631Z,1.62
2018-07-08T17:33:35.563Z,1.50
2018-07-08T17:36:10.820Z,1.40
2018-07-08T17:38:46.556Z,1.57
2018-07-08T17:41:21.572Z,1.77
2018-07-08T17:43:56.450Z,1.65
2018-07-08T17:46:31.477Z,1.87
2018-07-08T17:49:09.313Z,1.50
2018-07-08T17:51:51.228Z,1.60
2018-07-08T17:54:24.549Z,1.50
2018-07-08T17:57:00.657Z,1.57
2018-07-08T17:59:36.753Z,1.40
2018-07-08T18:02:21.792Z,1.70
2018-07-08T18:04:57.997Z,1.50
2018-07-08T18:07:41.402Z,1.70
2018-07-08T18:10:16.890Z,1.20
2018-07-08T18:12:57.492Z,1.30
2018-07-08T18:15:41.561Z,1.00
2018-07-08T18:18:15.063Z,1.70
2018-07-08T18:20:53.584Z,1.50
2018-07-08T18:23:32.527Z,1.60
2018-07-08T18:26:20.574Z,1.30
2018-07-08T18:29:03.667Z,1.50
2018-07-08T18:31:40.427Z,1.40
2018-07-08T18:34:15.769Z,1.40
2018-07-08T18:36:53.911Z,1.40
2018-07-08T18:39:31.650Z,1.33
2018-07-08T18:42:12.576Z,1.53
2018-07-08T18:44:48.373Z,1.33
2018-07-08T18:47:39.974Z,1.20
2018-07-08T18:50:17.788Z,1.20
2018-07-08T18:52:52.634Z,1.10
2018-07-08T18:55:27.837Z,1.30
2018-07-08T18:58:05.460Z,1.27
2018-07-08T19:00:39.628Z,1.40
2018-07-08T19:03:18.344Z,1.50
2018-07-08T19:05:53.161Z,1.30
2018-07-08T19:08:28.279Z,1.30
2018-07-08T19:11:18.769Z,1.50
2018-07-08T19:13:52.356Z,1.40
2018-07-08T19:16:26.474Z,1.47
2018-07-08T19:19:03.213Z,1.30
2018-07-08T19:21:44.576Z,1.40
2018-07-08T19:24:24.769Z,1.40
2018-07-08T19:27:05.656Z,1.47
2018-07-08T19:29:44.169Z,1.40
2018-07-08T19:32:18.777Z,1.20
2018-07-08T19:34:55.585Z,1.37
2018-07-08T19:37:30.970Z,1.50
2018-07-08T19:40:06.953Z,1.57
2018-07-08T19:42:42.175Z,1.37
2018-07-08T19:45:22.034Z,1.30
2018-07-08T19:48:05.307Z,1.47
2018-07-08T19:50:43.494Z,1.50
2018-07-08T19:53:17.328Z,1.50
2018-07-08T19:55:53.028Z,1.20
2018-07-08T19:58:28.355Z,1.20
2018-07-08T20:01:03.218Z,1.23
2018-07-08T20:03:44.265Z,1.40
2018-07-08T20:06:36.749Z,2.00
2018-07-08T20:09:23.684Z,1.50
2018-07-08T20:12:02.569Z,1.60
2018-07-08T20:14:44.993Z,1.50
2018-07-08T20:17:31.074Z,1.52
2018-07-08T20:20:10.731Z,1.40
2018-07-08T20:22:44.573Z,1.30
2018-07-08T20:25:20.814Z,1.53
2018-07-08T20:27:57.864Z,1.83
2018-07-08T20:30:36.720Z,1.73
2018-07-08T20:33:11.510Z,1.50
2018-07-08T20:35:44.908Z,1.43
2018-07-08T20:38:23.003Z,1.53
2018-07-08T20:41:04.073Z,1.40
2018-07-08T20:43:51.570Z,1.67
2018-07-08T20:46:42.592Z,1.50
2018-07-08T20:49:42.545Z,1.50
2018-07-08T20:52:22.759Z,1.77
2018-07-08T20:55:05.178Z,1.77
2018-07-08T20:57:48.237Z,1.43
2018-07-08T21:00:21.701Z,1.77
2018-07-08T21:02:55.853Z,2.10
2018-07-08T21:05:33.827Z,1.77
2018-07-08T21:08:11.861Z,1.80
2018-07-08T21:10:51.590Z,1.70
2018-07-08T21:13:31.485Z,1.80
2018-07-08T21:16:07.653Z,1.80
2018-07-08T21:18:42.687Z,2.30
2018-07-08T21:21:18.931Z,1.90
2018-07-08T21:23:52.600Z,1.80
2018-07-08T21:26:27.664Z,1.90
2018-07-08T21:29:02.760Z,2.20
2018-07-08T21:31:39.002Z,1.73
2018-07-08T21:34:13.658Z,1.70
2018-07-08T21:36:47.175Z,1.87
2018-07-08T21:39:22.313Z,2.23
2018-07-08T21:41:56.573Z,2.00
2018-07-08T21:44:34.988Z,2.00
2018-07-08T21:47:11.487Z,2.00
2018-07-08T21:49:46.028Z,2.47
2018-07-08T21:52:20.363Z,2.00
2018-07-08T21:54:53.499Z,2.33
2018-07-08T21:57:28.572Z,2.10
2018-07-08T22:00:06.914Z,2.00
2018-07-08T22:02:58.429Z,2.67
2018-07-08T22:05:31.836Z,2.03
2018-07-08T22:08:07.320Z,2.07
2018-07-08T22:10:52.079Z,2.20
2018-07-08T22:13:26.733Z,2.10
2018-07-08T22:16:04.282Z,2.00
2018-07-08T22:18:41.292Z,2.27
2018-07-08T22:21:30.687Z,2.10
2018-07-08T22:24:26.314Z,1.90
2018-07-08T22:27:00.303Z,2.40
2018-07-08T22:29:36.450Z,2.43
2018-07-08T22:32:11.645Z,2.13
2018-07-08T22:34:45.458Z,2.30
2018-07-08T22:37:21.906Z,2.50
2018-07-08T22:39:58.410Z,2.27
2018-07-08T22:42:32.604Z,2.63
2018-07-08T22:45:13.157Z,2.60
2018-07-08T22:47:46.489Z,2.13
2018-07-08T22:50:19.039Z,2.22
2018-07-08T22:52:56.371Z,2.50
2018-07-08T22:55:30.975Z,2.67
2018-07-08T22:58:06.513Z,3.47
2018-07-08T23:01:02.638Z,2.50
2018-07-08T23:03:58.045Z,2.10
2018-07-08T23:06:32.996Z,2.12
2018-07-08T23:09:09.657Z,2.37
2018-07-08T23:11:43.141Z,2.30
2018-07-08T23:14:16.290Z,2.40
2018-07-08T23:16:56.582Z,2.70
2018-07-08T23:19:29.929Z,2.60
2018-07-08T23:22:03.777Z,2.45
2018-07-08T23:24:38.841Z,2.43
2018-07-08T23:27:14.271Z,2.37
2018-07-08T23:29:48.969Z,2.27
2018-07-08T23:32:25.685Z,2.17
2018-07-08T23:34:59.609Z,2.50
2018-07-08T23:37:42.405Z,2.77
2018-07-08T23:40:18.669Z,2.50
2018-07-08T23:42:51.569Z,2.70
2018-07-08T23:45:25.154Z,2.70
2018-07-08T23:47:57.796Z,2.63
2018-07-08T23:50:32.110Z,2.70
2018-07-08T23:53:04.786Z,2.63
2018-07-08T23:55:37.297Z,2.70
2018-07-08T23:58:10.034Z,2.80
